createdAt,value
2018-04-08T00:03:13.132Z,13.40
2018-04-08T00:08:15.706Z,13.20
2018-04-08T00:13:18.282Z,13.10
2018-04-08T00:18:21.479Z,13.00
2018-04-08T00:23:24.392Z,13.00
2018-04-08T00:28:26.966Z,12.90
2018-04-08T00:33:29.562Z,12.70
2018-04-08T00:38:32.143Z,12.60
2018-04-08T00:43:37.798Z,12.70
2018-04-08T00:48:40.387Z,12.60
2018-04-08T00:53:42.989Z,12.60
2018-04-08T00:58:45.570Z,12.50
2018-04-08T01:03:48.162Z,12.40
2018-04-08T01:08:51.163Z,12.20
2018-04-08T01:14:08.519Z,12.20
2018-04-08T01:19:11.601Z,12.20
2018-04-08T01:24:14.597Z,12.10
2018-04-08T01:29:17.180Z,12.10
2018-04-08T01:34:20.218Z,12.10
2018-04-08T01:39:22.794Z,12.10
2018-04-08T01:44:25.860Z,12.20
2018-04-08T01:49:30.475Z,12.20
2018-04-08T01:54:39.625Z,12.10
2018-04-08T01:59:42.229Z,12.10
2018-04-08T02:04:45.667Z,12.20
2018-04-08T02:09:48.238Z,12.10
2018-04-08T02:14:51.376Z,12.00
2018-04-08T02:19:54.215Z,11.90
2018-04-08T02:24:57.389Z,11.70
2018-04-08T02:29:59.962Z,11.40
2018-04-08T02:35:02.533Z,11.50
2018-04-08T02:40:05.123Z,11.40
2018-04-08T02:45:08.330Z,11.30
2018-04-08T02:50:10.898Z,11.30
2018-04-08T02:55:14.038Z,11.30
2018-04-08T03:00:17.397Z,11.30
2018-04-08T03:10:30.685Z,11.10
2018-04-08T03:15:34.128Z,10.90
2018-04-08T03:20:36.702Z,10.80
2018-04-08T03:25:39.638Z,10.80
2018-04-08T03:30:43.128Z,10.60
2018-04-08T03:35:45.687Z,10.50
2018-04-08T03:40:48.263Z,10.60
2018-04-08T03:45:50.880Z,10.60
2018-04-08T03:50:56.140Z,10.50
2018-04-08T03:55:58.717Z,10.40
2018-04-08T04:01:01.279Z,10.30
2018-04-08T04:06:03.840Z,10.30
2018-04-08T04:11:06.418Z,10.20
2018-04-08T04:16:09.344Z,10.20
2018-04-08T04:21:23.950Z,10.20
2018-04-08T04:26:31.221Z,10.20
2018-04-08T04:31:33.773Z,10.20
2018-04-08T04:36:36.621Z,10.30
2018-04-08T04:41:39.196Z,10.10
2018-04-08T04:46:41.772Z,10.20
2018-04-08T04:51:45.241Z,10.10
2018-04-08T04:56:47.826Z,10.00
2018-04-08T05:01:50.377Z,10.00
2018-04-08T05:06:52.953Z,9.90
2018-04-08T05:11:55.520Z,9.90
2018-04-08T05:16:58.117Z,9.80
2018-04-08T05:22:00.683Z,9.80
2018-04-08T05:27:03.263Z,9.80
2018-04-08T05:32:05.856Z,9.80
2018-04-08T05:37:08.429Z,9.80
2018-04-08T05:42:12.024Z,9.80
2018-04-08T05:47:14.606Z,9.90
2018-04-08T05:52:17.175Z,10.00
2018-04-08T05:57:19.736Z,10.10
2018-04-08T06:02:23.042Z,10.30
2018-04-08T06:07:25.632Z,10.50
2018-04-08T06:12:28.514Z,10.70
2018-04-08T06:17:31.084Z,10.90
2018-04-08T06:22:33.654Z,11.00
2018-04-08T06:27:37.056Z,11.10
2018-04-08T06:32:39.630Z,11.30
2018-04-08T06:37:42.703Z,11.60
2018-04-08T06:42:45.274Z,11.90
2018-04-08T06:47:47.837Z,11.80
2018-04-08T06:52:50.386Z,11.70
2018-04-08T06:57:53.766Z,11.70
2018-04-08T07:02:56.657Z,11.70
2018-04-08T07:07:59.662Z,11.90
2018-04-08T07:13:02.230Z,12.00
2018-04-08T07:18:05.658Z,12.30
2018-04-08T07:23:08.245Z,12.40
2018-04-08T07:28:10.829Z,12.80
2018-04-08T07:33:14.538Z,13.00
2018-04-08T07:38:17.110Z,13.10
2018-04-08T07:43:19.674Z,13.30
2018-04-08T07:48:22.250Z,13.30
2018-04-08T07:53:24.827Z,13.50
2018-04-08T07:58:27.894Z,13.70
2018-04-08T08:03:31.114Z,13.90
2018-04-08T08:08:35.165Z,14.00
2018-04-08T08:13:37.719Z,14.40
2018-04-08T08:18:40.733Z,14.80
2018-04-08T08:23:43.309Z,15.10
2018-04-08T08:28:46.470Z,16.80
2018-04-08T08:33:49.883Z,21.20
2018-04-08T08:38:53.021Z,24.10
2018-04-08T08:43:55.584Z,24.90
2018-04-08T08:48:58.156Z,25.70
2018-04-08T08:54:00.734Z,25.20
2018-04-08T08:59:03.307Z,23.10
2018-04-08T09:04:05.908Z,21.60
2018-04-08T09:09:08.482Z,20.90
2018-04-08T09:14:11.047Z,20.10
2018-04-08T09:19:31.401Z,19.30
2018-04-08T09:24:37.738Z,19.10
2018-04-08T09:29:40.298Z,19.30
2018-04-08T09:34:42.886Z,20.10
2018-04-08T09:39:45.448Z,20.30
2018-04-08T09:44:48.594Z,20.50
2018-04-08T09:49:51.161Z,20.00
2018-04-08T09:54:54.084Z,20.00
2018-04-08T09:59:56.670Z,19.60
2018-04-08T10:04:59.234Z,20.20
2018-04-08T10:10:02.413Z,20.60
2018-04-08T10:15:05.477Z,21.00
2018-04-08T10:20:08.439Z,21.20
2018-04-08T10:25:10.997Z,21.80
2018-04-08T10:30:13.654Z,21.80
2018-04-08T10:35:16.206Z,22.40
2018-04-08T10:40:18.772Z,22.40
2018-04-08T10:45:21.384Z,22.80
2018-04-08T10:50:23.948Z,22.50
2018-04-08T10:55:27.104Z,22.70
2018-04-08T11:00:29.666Z,22.80
2018-04-08T11:05:32.972Z,23.20
2018-04-08T11:10:36.955Z,23.80
2018-04-08T11:15:39.527Z,23.60
2018-04-08T11:20:42.107Z,24.40
2018-04-08T11:25:51.440Z,24.70
2018-04-08T11:30:54.009Z,25.30
2018-04-08T11:35:56.583Z,26.00
2018-04-08T11:40:59.140Z,26.50
2018-04-08T11:46:01.729Z,26.80
2018-04-08T11:51:04.282Z,26.90
2018-04-08T11:56:06.850Z,26.80
2018-04-08T12:01:09.430Z,27.10
2018-04-08T12:06:12.776Z,27.30
2018-04-08T12:11:15.364Z,27.70
2018-04-08T12:16:17.938Z,27.50
2018-04-08T12:21:20.512Z,27.10
2018-04-08T12:26:25.831Z,26.80
2018-04-08T12:31:28.405Z,26.20
2018-04-08T12:36:30.966Z,26.10
2018-04-08T12:41:33.525Z,26.00
2018-04-08T12:46:36.089Z,25.90
2018-04-08T12:51:38.822Z,26.50
2018-04-08T12:56:41.395Z,26.90
2018-04-08T13:01:44.006Z,27.20
2018-04-08T13:06:46.590Z,27.60
2018-04-08T13:11:49.177Z,27.60
2018-04-08T13:16:51.773Z,27.70
2018-04-08T13:21:54.353Z,27.90
2018-04-08T13:26:57.709Z,28.80
2018-04-08T13:32:00.301Z,29.50
2018-04-08T13:37:03.458Z,29.80
2018-04-08T13:42:06.280Z,29.40
2018-04-08T13:47:08.858Z,28.80
2018-04-08T13:52:11.418Z,29.00
2018-04-08T13:57:14.826Z,28.90
2018-04-08T14:02:17.430Z,28.50
2018-04-08T14:07:22.925Z,28.20
2018-04-08T14:12:25.498Z,27.90
2018-04-08T14:17:28.415Z,27.70
2018-04-08T14:22:31.003Z,27.50
2018-04-08T14:27:35.422Z,27.10
2018-04-08T14:32:38.024Z,27.20
2018-04-08T14:37:41.083Z,27.70
2018-04-08T14:42:43.657Z,28.60
2018-04-08T14:47:46.233Z,29.40
2018-04-08T14:52:48.830Z,30.10
2018-04-08T14:57:53.057Z,30.60
2018-04-08T15:02:55.643Z,30.50
2018-04-08T15:07:58.219Z,30.50
2018-04-08T15:13:00.804Z,30.50
2018-04-08T15:18:03.991Z,30.50
2018-04-08T15:23:14.414Z,30.50
2018-04-08T15:28:17.022Z,30.10
2018-04-08T15:33:22.819Z,30.00
2018-04-08T15:38:25.365Z,29.50
2018-04-08T15:43:28.381Z,28.50
2018-04-08T15:48:31.230Z,27.60
2018-04-08T15:53:33.795Z,27.10
2018-04-08T15:58:36.361Z,27.00
2018-04-08T16:03:38.936Z,27.20
2018-04-08T16:08:41.504Z,27.30
2018-04-08T16:13:44.109Z,27.50
2018-04-08T16:18:46.726Z,27.50
2018-04-08T16:23:49.323Z,27.80
2018-04-08T16:28:51.952Z,28.00
2018-04-08T16:33:54.524Z,28.00
2018-04-08T16:38:57.091Z,28.00
2018-04-08T16:43:59.661Z,27.90
2018-04-08T16:49:02.257Z,27.90
2018-04-08T16:54:05.922Z,27.90
2018-04-08T16:59:08.534Z,27.80
2018-04-08T17:04:11.554Z,27.60
2018-04-08T17:09:14.143Z,27.30
2018-04-08T17:14:16.700Z,26.90
2018-04-08T17:19:19.258Z,26.60
2018-04-08T17:24:24.447Z,26.30
2018-04-08T17:29:27.021Z,26.10
2018-04-08T17:34:31.395Z,26.00
2018-04-08T17:39:33.962Z,25.70
2018-04-08T17:44:36.530Z,25.40
2018-04-08T17:49:39.106Z,25.00
2018-04-08T17:54:42.286Z,24.70
2018-04-08T17:59:45.282Z,24.30
2018-04-08T18:04:47.862Z,23.80
2018-04-08T18:09:51.654Z,23.40
2018-04-08T18:14:55.289Z,23.00
2018-04-08T18:19:57.863Z,22.70
2018-04-08T18:25:01.163Z,22.50
2018-04-08T18:30:03.735Z,22.30
2018-04-08T18:35:06.321Z,22.10
2018-04-08T18:40:08.889Z,22.00
2018-04-08T18:45:12.237Z,21.90
2018-04-08T18:50:14.835Z,21.90
2018-04-08T18:55:17.410Z,21.90
2018-04-08T19:00:22.573Z,21.90
2018-04-08T19:05:25.143Z,21.80
2018-04-08T19:10:32.631Z,21.40
2018-04-08T19:15:35.820Z,21.00
2018-04-08T19:20:44.077Z,20.90
2018-04-08T19:25:46.665Z,20.70
2018-04-08T19:30:49.245Z,20.60
2018-04-08T19:35:53.372Z,20.30
2018-04-08T19:40:56.524Z,20.10
2018-04-08T19:45:59.103Z,19.80
2018-04-08T19:51:02.293Z,19.60
2018-04-08T19:56:05.318Z,19.50
2018-04-08T20:01:07.890Z,19.40
2018-04-08T20:06:12.881Z,19.30
2018-04-08T20:11:18.023Z,19.10
2018-04-08T20:16:20.601Z,18.90
2018-04-08T20:21:23.175Z,18.80
2018-04-08T20:26:26.977Z,18.60
2018-04-08T20:31:29.558Z,18.40
2018-04-08T20:36:32.141Z,18.20
2018-04-08T20:41:35.606Z,18.10
2018-04-08T20:46:40.641Z,18.00
2018-04-08T20:51:43.201Z,18.10
2018-04-08T20:56:46.237Z,17.90
2018-04-08T21:01:49.377Z,17.70
2018-04-08T21:06:51.978Z,17.50
2018-04-08T21:11:54.541Z,17.40
2018-04-08T21:16:57.685Z,17.20
2018-04-08T21:22:00.260Z,17.10
2018-04-08T21:27:03.443Z,16.90
2018-04-08T21:32:06.024Z,16.90
2018-04-08T21:37:08.885Z,16.80
2018-04-08T21:42:11.458Z,16.50
2018-04-08T21:47:14.023Z,16.30
2018-04-08T21:52:20.319Z,16.20
2018-04-08T21:57:26.044Z,16.20
2018-04-08T22:02:29.694Z,16.00
2018-04-08T22:07:32.273Z,15.80
2018-04-08T22:12:34.832Z,15.80
2018-04-08T22:17:38.042Z,15.80
2018-04-08T22:22:40.606Z,15.60
2018-04-08T22:27:44.193Z,15.50
2018-04-08T22:32:46.757Z,15.40
2018-04-08T22:37:51.911Z,15.40
2018-04-08T22:42:54.999Z,15.30
2018-04-08T22:47:57.789Z,15.10
2018-04-08T22:53:00.355Z,14.90
2018-04-08T22:58:02.939Z,14.90
2018-04-08T23:03:05.496Z,14.90
2018-04-08T23:08:08.054Z,14.70
2018-04-08T23:13:11.594Z,14.50
2018-04-08T23:18:14.658Z,14.20
2018-04-08T23:23:17.226Z,14.30
2018-04-08T23:28:20.083Z,14.20
2018-04-08T23:33:23.222Z,14.10
2018-04-08T23:38:25.785Z,14.10
2018-04-08T23:43:28.329Z,14.00
2018-04-08T23:48:31.060Z,14.10
2018-04-08T23:53:33.943Z,14.10
2018-04-08T23:58:36.530Z,13.90
